sensor_id;sensor_type;location;lat;lon;timestamp;pressure;altitude;pressure_sealevel;temperature;humidity
78673;BME280;67988;60.086;30.354;2023-05-24T19:29:23;101404.06;;;18.11;47.59
78673;BME280;67988;60.086;30.354;2023-05-24T19:31:50;101400.78;;;18.07;48.95
78673;BME280;67988;60.086;30.354;2023-05-24T19:34:17;101401.66;;;18.08;49.53
78673;BME280;67988;60.086;30.354;2023-05-24T19:36:44;101396.97;;;18.10;49.80
78673;BME280;67988;60.086;30.354;2023-05-24T19:39:11;101400.66;;;18.09;50.02
78673;BME280;67988;60.086;30.354;2023-05-24T19:41:38;101404.34;;;18.08;49.64
78673;BME280;67988;60.086;30.354;2023-05-24T19:44:05;101402.50;;;18.08;49.99
78673;BME280;67988;60.086;30.354;2023-05-24T19:46:34;101397.81;;;18.10;50.03
78673;BME280;67988;60.086;30.354;2023-05-24T19:49:01;101398.66;;;18.11;50.24
78673;BME280;67988;60.086;30.354;2023-05-24T19:51:28;101395.13;;;18.10;50.13
78673;BME280;67988;60.086;30.354;2023-05-24T19:53:55;101402.03;;;18.13;50.23
78673;BME280;67988;60.086;30.354;2023-05-24T19:56:22;101390.41;;;18.12;49.97
78673;BME280;67988;60.086;30.354;2023-05-24T19:58:49;101385.59;;;18.16;49.65
78673;BME280;67988;60.086;30.354;2023-05-24T20:01:16;101325.56;;;17.78;50.00
78673;BME280;67988;60.086;30.354;2023-05-24T20:03:45;101384.56;;;18.17;50.39
78673;BME280;67988;60.086;30.354;2023-05-24T20:06:13;101396.66;;;18.13;50.20
78673;BME280;67988;60.086;30.354;2023-05-24T20:08:41;101380.81;;;18.10;50.49
78673;BME280;67988;60.086;30.354;2023-05-24T20:11:08;101382.78;;;18.08;50.06
78673;BME280;67988;60.086;30.354;2023-05-24T20:13:36;101386.03;;;18.11;49.70
78673;BME280;67988;60.086;30.354;2023-05-24T20:16:04;101375.25;;;18.11;49.64
78673;BME280;67988;60.086;30.354;2023-05-24T20:18:32;101378.78;;;18.12;49.69
78673;BME280;67988;60.086;30.354;2023-05-24T20:21:01;101379.81;;;18.11;49.80
78673;BME280;67988;60.086;30.354;2023-05-24T20:23:28;101377.56;;;18.06;49.78
78673;BME280;67988;60.086;30.354;2023-05-24T20:25:55;101379.56;;;18.04;49.90
78673;BME280;67988;60.086;30.354;2023-05-24T20:28:23;101371.09;;;17.99;49.89
78673;BME280;67988;60.086;30.354;2023-05-24T20:30:50;101370.38;;;17.97;50.42
78673;BME280;67988;60.086;30.354;2023-05-24T20:33:17;101374.00;;;17.88;51.41
78673;BME280;67988;60.086;30.354;2023-05-24T20:35:44;101375.94;;;17.58;52.39
78673;BME280;67988;60.086;30.354;2023-05-24T20:38:13;101372.00;;;17.16;53.66
78673;BME280;67988;60.086;30.354;2023-05-24T20:40:40;101372.47;;;17.02;54.06
78673;BME280;67988;60.086;30.354;2023-05-24T20:43:07;101372.19;;;16.86;54.39
78673;BME280;67988;60.086;30.354;2023-05-24T20:45:34;101375.63;;;16.78;55.01
78673;BME280;67988;60.086;30.354;2023-05-24T20:48:01;101371.13;;;16.69;55.39
78673;BME280;67988;60.086;30.354;2023-05-24T20:50:28;101338.72;;;16.42;55.53
78673;BME280;67988;60.086;30.354;2023-05-24T20:52:55;101369.81;;;16.44;56.24
78673;BME280;67988;60.086;30.354;2023-05-24T20:55:23;101367.81;;;16.37;56.42
78673;BME280;67988;60.086;30.354;2023-05-24T20:57:50;101368.41;;;16.30;56.50
78673;BME280;67988;60.086;30.354;2023-05-24T21:00:18;101366.81;;;16.18;56.94
78673;BME280;67988;60.086;30.354;2023-05-24T21:02:45;101368.34;;;16.02;57.52
78673;BME280;67988;60.086;30.354;2023-05-24T21:05:12;101372.44;;;15.96;57.64
78673;BME280;67988;60.086;30.354;2023-05-24T21:07:39;101370.00;;;15.83;57.94
78673;BME280;67988;60.086;30.354;2023-05-24T21:10:07;101371.69;;;15.75;58.11
78673;BME280;67988;60.086;30.354;2023-05-24T21:12:35;101377.84;;;15.66;58.02
78673;BME280;67988;60.086;30.354;2023-05-24T21:15:03;101380.03;;;15.51;58.07
78673;BME280;67988;60.086;30.354;2023-05-24T21:17:30;101381.53;;;15.44;58.08
78673;BME280;67988;60.086;30.354;2023-05-24T21:19:57;101373.66;;;15.42;57.87
78673;BME280;67988;60.086;30.354;2023-05-24T21:22:24;101380.44;;;15.46;57.79
78673;BME280;67988;60.086;30.354;2023-05-24T21:24:51;101380.78;;;15.53;57.52
78673;BME280;67988;60.086;30.354;2023-05-24T21:27:18;101371.91;;;15.62;56.77
78673;BME280;67988;60.086;30.354;2023-05-24T21:29:46;101320.13;;;15.41;56.01
78673;BME280;67988;60.086;30.354;2023-05-24T21:32:13;101365.19;;;15.77;56.02
78673;BME280;67988;60.086;30.354;2023-05-24T21:34:40;101375.34;;;15.74;56.00
78673;BME280;67988;60.086;30.354;2023-05-24T21:37:07;101378.41;;;15.60;56.26
78673;BME280;67988;60.086;30.354;2023-05-24T21:39:34;101371.09;;;15.71;55.46
78673;BME280;67988;60.086;30.354;2023-05-24T21:42:01;101387.06;;;15.73;55.34
78673;BME280;67988;60.086;30.354;2023-05-24T21:44:29;101371.84;;;15.83;54.50
78673;BME280;67988;60.086;30.354;2023-05-24T21:46:57;101368.72;;;15.87;54.38
78673;BME280;67988;60.086;30.354;2023-05-24T21:49:24;101371.03;;;16.02;53.84
78673;BME280;67988;60.086;30.354;2023-05-24T21:51:52;101370.00;;;15.93;53.73
78673;BME280;67988;60.086;30.354;2023-05-24T21:54:19;101374.56;;;15.93;53.64
78673;BME280;67988;60.086;30.354;2023-05-24T21:56:46;101366.03;;;15.87;53.49
78673;BME280;67988;60.086;30.354;2023-05-24T21:59:13;101361.28;;;16.01;53.02
78673;BME280;67988;60.086;30.354;2023-05-24T22:01:40;101361.84;;;15.95;53.43
78673;BME280;67988;60.086;30.354;2023-05-24T22:04:08;101359.13;;;15.85;54.28
78673;BME280;67988;60.086;30.354;2023-05-24T22:06:35;101364.75;;;15.72;55.54
78673;BME280;67988;60.086;30.354;2023-05-24T22:09:07;101351.28;;;15.53;56.24
78673;BME280;67988;60.086;30.354;2023-05-24T22:11:34;101355.28;;;15.38;57.01
78673;BME280;67988;60.086;30.354;2023-05-24T22:14:01;101341.22;;;15.15;57.27
78673;BME280;67988;60.086;30.354;2023-05-24T22:16:29;101360.50;;;15.09;58.74
78673;BME280;67988;60.086;30.354;2023-05-24T22:18:55;101357.81;;;15.09;58.49
78673;BME280;67988;60.086;30.354;2023-05-24T22:21:24;101360.91;;;15.04;58.03
78673;BME280;67988;60.086;30.354;2023-05-24T22:23:52;101358.75;;;14.98;57.96
78673;BME280;67988;60.086;30.354;2023-05-24T22:26:19;101364.75;;;14.91;57.71
78673;BME280;67988;60.086;30.354;2023-05-24T22:28:49;101353.34;;;14.89;57.81
78673;BME280;67988;60.086;30.354;2023-05-24T22:31:16;101357.50;;;15.02;56.52
78673;BME280;67988;60.086;30.354;2023-05-24T22:33:44;101348.72;;;15.21;56.08
78673;BME280;67988;60.086;30.354;2023-05-24T22:36:11;101357.91;;;15.28;55.83
78673;BME280;67988;60.086;30.354;2023-05-24T22:38:40;101348.34;;;15.35;55.00
78673;BME280;67988;60.086;30.354;2023-05-24T22:41:08;101344.84;;;15.44;54.64
78673;BME280;67988;60.086;30.354;2023-05-24T22:43:35;101340.50;;;15.43;54.34
78673;BME280;67988;60.086;30.354;2023-05-24T22:46:04;101339.69;;;15.53;54.21
78673;BME280;67988;60.086;30.354;2023-05-24T22:48:31;101344.41;;;15.39;55.21
78673;BME280;67988;60.086;30.354;2023-05-24T22:50:59;101342.41;;;15.62;53.68
78673;BME280;67988;60.086;30.354;2023-05-24T22:53:26;101342.72;;;15.69;53.40
78673;BME280;67988;60.086;30.354;2023-05-24T22:55:54;101338.34;;;15.77;52.97
78673;BME280;67988;60.086;30.354;2023-05-24T22:58:22;101338.94;;;15.81;52.78
78673;BME280;67988;60.086;30.354;2023-05-24T23:00:50;101342.31;;;15.83;52.73
78673;BME280;67988;60.086;30.354;2023-05-24T23:03:17;101336.94;;;15.83;53.00
78673;BME280;67988;60.086;30.354;2023-05-24T23:05:44;101335.25;;;15.82;52.46
78673;BME280;67988;60.086;30.354;2023-05-24T23:08:11;101334.56;;;15.89;51.79
78673;BME280;67988;60.086;30.354;2023-05-24T23:10:38;101340.66;;;15.92;52.03
78673;BME280;67988;60.086;30.354;2023-05-24T23:13:12;101342.91;;;15.96;52.09
78673;BME280;67988;60.086;30.354;2023-05-24T23:15:39;101338.81;;;16.02;51.62
78673;BME280;67988;60.086;30.354;2023-05-24T23:18:06;101350.53;;;16.01;52.36
78673;BME280;67988;60.086;30.354;2023-05-24T23:20:34;101346.03;;;15.92;53.33
78673;BME280;67988;60.086;30.354;2023-05-24T23:23:04;101338.63;;;15.74;52.91
78673;BME280;67988;60.086;30.354;2023-05-24T23:25:31;101352.19;;;15.82;52.96
78673;BME280;67988;60.086;30.354;2023-05-24T23:27:59;101353.47;;;15.88;52.28
78673;BME280;67988;60.086;30.354;2023-05-24T23:30:27;101354.00;;;15.72;53.52
78673;BME280;67988;60.086;30.354;2023-05-24T23:32:54;101352.88;;;15.65;53.45
78673;BME280;67988;60.086;30.354;2023-05-24T23:35:21;101345.09;;;15.62;53.23
78673;BME280;67988;60.086;30.354;2023-05-24T23:37:48;101345.81;;;15.64;52.17
78673;BME280;67988;60.086;30.354;2023-05-24T23:40:15;101345.97;;;15.72;51.29
78673;BME280;67988;60.086;30.354;2023-05-24T23:42:42;101346.69;;;15.74;51.30
78673;BME280;67988;60.086;30.354;2023-05-24T23:45:10;101346.25;;;15.69;51.99
78673;BME280;67988;60.086;30.354;2023-05-24T23:47:41;101347.91;;;15.61;52.70
78673;BME280;67988;60.086;30.354;2023-05-24T23:50:08;101344.28;;;15.41;54.12
78673;BME280;67988;60.086;30.354;2023-05-24T23:52:35;101333.66;;;15.30;54.61
78673;BME280;67988;60.086;30.354;2023-05-24T23:55:03;101335.31;;;15.21;54.67
78673;BME280;67988;60.086;30.354;2023-05-24T23:57:30;101332.63;;;15.00;55.94
78673;BME280;67988;60.086;30.354;2023-05-24T23:59:57;101336.84;;;14.93;56.00
